Time;durP1;ratioP1;P1;durP2;ratioP2;P2;SDS_P1;SDS_P2;PMS_P1;PMS_P2;Temp;Humidity;BMP_temperature;BMP_pressure;BME280_temperature;BME280_humidity;BME280_pressure;Samples;Min_cycle;Max_cycle;Signal;HPM_P1;HPM_P2
2020/12/20 00:01:53;;;;;;;30.13;19.95;;;;;;;5.49;100.00;100786.06;4998631;28;20048;-69
2020/12/20 00:04:36;;;;;;;24.27;17.90;;;;;;;5.50;100.00;100788.63;4985299;28;20075;-67
2020/12/20 00:07:21;;;;;;;28.25;20.50;;;;;;;5.50;100.00;100785.09;4998389;28;20183;-69
2020/12/20 00:10:05;;;;;;;29.08;17.73;;;;;;;5.51;100.00;100781.50;4998446;28;20561;-68
2020/12/20 00:12:49;;;;;;;31.15;20.55;;;;;;;5.46;100.00;100787.09;4998669;28;20052;-69
2020/12/20 00:15:33;;;;;;;25.42;19.08;;;;;;;5.51;100.00;100784.16;4984529;28;20057;-68
2020/12/20 00:18:17;;;;;;;26.73;19.15;;;;;;;5.54;100.00;100782.16;4984782;28;20532;-68
2020/12/20 00:21:01;;;;;;;25.90;17.75;;;;;;;5.58;100.00;100788.97;4984687;28;20462;-68
2020/12/20 00:23:45;;;;;;;22.70;16.77;;;;;;;5.62;100.00;100784.31;4998242;28;20060;-69
2020/12/20 00:26:29;;;;;;;31.10;21.15;;;;;;;5.65;100.00;100778.84;4998434;28;20525;-65
2020/12/20 00:29:13;;;;;;;28.95;19.60;;;;;;;5.69;100.00;100785.59;4998489;28;20057;-69
2020/12/20 00:31:57;;;;;;;23.58;18.40;;;;;;;5.68;100.00;100774.19;4984823;28;20053;-69
2020/12/20 00:34:41;;;;;;;31.98;19.58;;;;;;;5.70;100.00;100772.28;4998148;28;20104;-69
2020/12/20 00:37:25;;;;;;;32.20;21.58;;;;;;;5.73;100.00;100782.66;4998340;28;20096;-69
2020/12/20 00:40:10;;;;;;;31.02;21.50;;;;;;;5.74;100.00;100779.06;5013000;28;20126;-68
2020/12/20 00:42:54;;;;;;;32.25;21.65;;;;;;;5.77;100.00;100786.78;4998269;28;20096;-67
2020/12/20 00:45:38;;;;;;;31.45;21.73;;;;;;;5.80;100.00;100778.69;4998307;28;20061;-69
2020/12/20 00:48:22;;;;;;;27.83;18.80;;;;;;;5.81;100.00;100768.94;5012859;28;20529;-69
2020/12/20 00:51:06;;;;;;;32.22;23.02;;;;;;;5.82;100.00;100770.63;4998067;28;20056;-69
2020/12/20 00:53:50;;;;;;;29.27;18.98;;;;;;;5.79;100.00;100771.72;4998324;28;20048;-68
2020/12/20 00:56:34;;;;;;;33.53;23.38;;;;;;;5.80;100.00;100784.00;5012672;28;20072;-69
2020/12/20 00:59:19;;;;;;;35.15;23.95;;;;;;;5.81;100.00;100775.09;5013062;28;20108;-67
2020/12/20 01:02:02;;;;;;;30.38;22.17;;;;;;;5.81;100.00;100777.75;5016222;28;20501;-69
2020/12/20 01:04:46;;;;;;;30.50;22.50;;;;;;;5.83;100.00;100773.19;5001707;28;20053;-69
2020/12/20 01:07:32;;;;;;;28.38;19.02;;;;;;;5.83;100.00;100775.84;4987523;28;20057;-69
2020/12/20 01:10:16;;;;;;;26.23;19.75;;;;;;;5.83;100.00;100773.19;5001440;28;20080;-69
2020/12/20 01:13:00;;;;;;;28.35;18.48;;;;;;;5.85;100.00;100768.63;5016393;28;20041;-69
2020/12/20 01:15:44;;;;;;;21.55;15.50;;;;;;;5.83;100.00;100773.19;5001418;28;20084;-69
2020/12/20 01:18:28;;;;;;;21.60;15.55;;;;;;;5.82;100.00;100774.16;4987917;28;20057;-69
2020/12/20 01:21:13;;;;;;;27.58;17.50;;;;;;;5.83;100.00;100775.84;5001313;28;20056;-69
2020/12/20 01:23:57;;;;;;;30.20;20.17;;;;;;;5.84;100.00;100780.19;5001277;28;20407;-69
2020/12/20 01:26:42;;;;;;;25.50;19.10;;;;;;;5.84;100.00;100780.19;4987354;28;20100;-69
2020/12/20 01:29:26;;;;;;;28.23;18.63;;;;;;;5.86;100.00;100783.56;5016051;28;20088;-69
2020/12/20 01:32:10;;;;;;;25.80;18.60;;;;;;;5.88;100.00;100779.03;5015933;28;20513;-69
2020/12/20 01:34:54;;;;;;;24.15;18.10;;;;;;;5.92;100.00;100782.31;5001129;28;20104;-69
2020/12/20 01:37:39;;;;;;;25.50;17.33;;;;;;;5.94;100.00;100786.56;5000785;28;20049;-68
2020/12/20 01:40:24;;;;;;;26.00;17.10;;;;;;;5.98;100.00;100788.06;5000984;28;20517;-69
2020/12/20 01:43:08;;;;;;;24.00;17.38;;;;;;;6.01;100.00;100798.44;5000788;28;20057;-69
2020/12/20 01:45:52;;;;;;;26.02;18.27;;;;;;;6.04;100.00;100803.50;5015661;28;20048;-69
2020/12/20 01:48:37;;;;;;;23.20;16.08;;;;;;;6.01;100.00;100787.84;5001169;28;20069;-68
2020/12/20 01:51:21;;;;;;;31.13;21.13;;;;;;;6.01;100.00;100782.56;5015285;28;20057;-69
2020/12/20 01:54:06;;;;;;;29.10;18.70;;;;;;;6.02;100.00;100780.75;5015628;28;20131;-69
2020/12/20 01:56:50;;;;;;;27.20;18.05;;;;;;;6.04;100.00;100792.09;5015540;28;20088;-68
2020/12/20 01:59:35;;;;;;;32.17;18.52;;;;;;;6.02;100.00;100789.53;5000656;28;20107;-68
2020/12/20 02:02:20;;;;;;;25.75;17.30;;;;;;;6.03;100.00;100787.72;5000537;28;20081;-66
2020/12/20 02:05:04;;;;;;;24.02;16.35;;;;;;;6.01;100.00;100785.19;5000668;28;20092;-69
2020/12/20 02:07:48;;;;;;;24.85;16.50;;;;;;;6.01;100.00;100785.19;4986695;28;20089;-68
2020/12/20 02:10:32;;;;;;;25.45;18.17;;;;;;;6.01;100.00;100782.56;5000455;28;20411;-68
2020/12/20 02:13:16;;;;;;;23.60;16.92;;;;;;;6.05;100.00;100781.38;5015207;28;20049;-68
2020/12/20 02:16:01;;;;;;;23.15;15.70;;;;;;;6.06;100.00;100774.31;5000096;28;20049;-69
2020/12/20 02:18:46;;;;;;;21.60;16.10;;;;;;;6.08;100.00;100778.56;5014868;28;20056;-69
2020/12/20 02:21:30;;;;;;;21.38;15.60;;;;;;;6.11;100.00;100778.34;5000340;28;20049;-69
2020/12/20 02:24:14;;;;;;;;;;;;;;;6.07;100.00;100782.13;4986498;28;20450;-69
2020/12/20 02:26:58;;;;;;;24.00;16.55;;;;;;;6.11;100.00;100778.34;5014937;28;19919;-69
2020/12/20 02:29:42;;;;;;;;;;;;;;;6.08;100.00;100775.91;5000212;28;20052;-68
2020/12/20 02:32:25;;;;;;;24.48;15.48;;;;;;;6.07;100.00;100773.34;5014916;28;19920;-69
2020/12/20 02:35:09;;;;;;;23.77;16.73;;;;;;;6.06;100.00;100783.06;5000072;28;20052;-69
2020/12/20 02:37:53;;;;;;;22.02;16.83;;;;;;;6.09;100.00;100774.94;4999914;28;20053;-68
2020/12/20 02:40:39;;;;;;;20.83;15.95;;;;;;;6.10;100.00;100771.34;5014648;28;20475;-69
2020/12/20 02:43:23;;;;;;;25.85;17.63;;;;;;;6.11;100.00;100765.09;5014358;28;20422;-69
2020/12/20 02:46:07;;;;;;;22.27;16.40;;;;;;;6.14;100.00;100775.47;5014856;28;20056;-69
2020/12/20 02:48:50;;;;;;;21.02;16.00;;;;;;;6.16;100.00;100776.22;4985756;28;20064;-68
2020/12/20 02:51:38;;;;;;;27.65;15.50;;;;;;;6.17;100.00;100787.66;4999712;28;20410;-69
2020/12/20 02:54:22;;;;;;;22.23;15.18;;;;;;;6.15;100.00;100779.81;5014499;28;20053;-69
2020/12/20 02:57:06;;;;;;;27.40;15.52;;;;;;;6.16;100.00;100778.84;4999214;28;20122;-68
2020/12/20 02:59:50;;;;;;;22.27;16.45;;;;;;;6.17;100.00;100787.66;5014428;28;20059;-69
2020/12/20 03:02:34;;;;;;;21.33;15.93;;;;;;;6.19;100.00;100791.91;4999297;28;20052;-68
2020/12/20 03:05:19;;;;;;;23.65;16.13;;;;;;;6.20;100.00;100793.59;4999278;28;20084;-68
2020/12/20 03:08:03;;;;;;;25.02;16.23;;;;;;;6.28;100.00;100791.25;5014793;28;20433;-68
2020/12/20 03:10:47;;;;;;;25.63;17.42;;;;;;;6.27;100.00;100799.31;4999394;28;20044;-68
2020/12/20 03:13:31;;;;;;;21.45;16.23;;;;;;;6.24;100.00;100784.47;5014006;28;20056;-68
2020/12/20 03:16:15;;;;;;;21.17;15.80;;;;;;;6.24;100.00;100779.19;5013966;28;20148;-68
2020/12/20 03:18:59;;;;;;;23.80;17.15;;;;;;;6.24;100.00;100784.47;5013859;28;20156;-68
2020/12/20 03:21:43;;;;;;;23.27;16.83;;;;;;;6.26;100.00;100781.75;5013783;28;20045;-68
2020/12/20 03:24:27;;;;;;;23.75;15.85;;;;;;;6.27;100.00;100789.56;5013595;28;20568;-68
2020/12/20 03:27:11;;;;;;;21.88;15.50;;;;;;;6.28;100.00;100791.25;4985197;28;20053;-68
2020/12/20 03:29:55;;;;;;;24.08;17.40;;;;;;;6.30;100.00;100793.81;4999086;28;20096;-68
2020/12/20 03:32:41;;;;;;;19.25;15.00;;;;;;;6.29;100.00;100795.63;5013824;28;20064;-68
2020/12/20 03:35:25;;;;;;;19.08;15.20;;;;;;;6.28;100.00;100801.00;5013551;28;20053;-68
2020/12/20 03:38:09;;;;;;;25.58;16.52;;;;;;;6.27;100.00;100801.97;4999052;28;20068;-68
2020/12/20 03:40:53;;;;;;;24.55;16.92;;;;;;;6.22;100.00;100791.69;4998947;28;20080;-68
2020/12/20 03:43:37;;;;;;;;;;;;;;;6.24;100.00;100794.25;4999388;28;20421;-68
2020/12/20 03:46:21;;;;;;;21.17;16.20;;;;;;;6.25;100.00;100791.47;5013764;28;20352;-68
2020/12/20 03:49:05;;;;;;;22.20;15.68;;;;;;;6.25;100.00;100780.88;4999122;28;20139;-68
2020/12/20 03:51:49;;;;;;;22.65;16.00;;;;;;;6.26;100.00;100787.88;4985176;28;20056;-68
2020/12/20 03:54:33;;;;;;;19.15;15.90;;;;;;;6.26;100.00;100793.16;4998765;28;20544;-68
2020/12/20 03:57:17;;;;;;;21.73;15.60;;;;;;;6.27;100.00;100786.09;4998561;28;20099;-68
2020/12/20 04:00:01;;;;;;;22.20;16.08;;;;;;;6.26;100.00;100785.22;5013962;28;20120;-68
2020/12/20 04:02:44;;;;;;;27.08;16.80;;;;;;;6.27;100.00;100784.25;5013554;28;20165;-68
2020/12/20 04:05:29;;;;;;;22.83;16.00;;;;;;;6.28;100.00;100782.47;4998699;28;20100;-68
2020/12/20 04:08:13;;;;;;;24.15;17.17;;;;;;;6.31;100.00;100776.97;4999250;28;20188;-68
2020/12/20 04:10:57;;;;;;;24.23;15.57;;;;;;;6.27;100.00;100788.72;4998436;28;20103;-69
2020/12/20 04:13:41;;;;;;;19.77;15.73;;;;;;;6.25;100.00;100783.53;4998651;28;20040;-68
2020/12/20 04:16:25;;;;;;;23.90;16.63;;;;;;;6.28;100.00;100791.25;4998446;28;20111;-68
2020/12/20 04:19:09;;;;;;;26.08;17.20;;;;;;;6.21;100.00;100789.13;4998619;28;20052;-68
2020/12/20 04:21:53;;;;;;;20.85;16.20;;;;;;;6.18;100.00;100779.59;5013476;28;20414;-68
2020/12/20 04:24:37;;;;;;;20.15;15.52;;;;;;;6.17;100.00;100783.19;5013395;28;20514;-67
2020/12/20 04:27:21;;;;;;;23.48;15.93;;;;;;;6.16;100.00;100776.22;5013241;28;20077;-68
2020/12/20 04:30:05;;;;;;;24.23;16.88;;;;;;;6.15;100.00;100771.88;4998259;28;20514;-68
2020/12/20 04:32:49;;;;;;;23.35;15.95;;;;;;;6.17;100.00;100783.19;4998324;28;20053;-68
2020/12/20 04:35:33;;;;;;;20.65;15.77;;;;;;;6.15;100.00;100779.81;5000141;28;20545;-68
2020/12/20 04:38:18;;;;;;;22.90;15.60;;;;;;;6.16;100.00;100786.78;5002293;28;20450;-68
2020/12/20 04:41:02;;;;;;;19.35;15.27;;;;;;;6.16;100.00;100772.72;5016985;28;20418;-68
2020/12/20 04:43:47;;;;;;;20.73;15.32;;;;;;;6.14;100.00;100775.47;5001948;28;20192;-68
2020/12/20 04:46:31;;;;;;;19.08;14.50;;;;;;;6.13;100.00;100773.78;5001967;28;20104;-67
2020/12/20 04:49:16;;;;;;;27.55;16.05;;;;;;;6.14;100.00;100772.00;5016821;28;20164;-68
2020/12/20 04:52:00;;;;;;;21.33;15.10;;;;;;;6.12;100.00;100768.56;5001644;28;20056;-68
2020/12/20 04:54:45;;;;;;;22.60;14.95;;;;;;;6.12;100.00;100771.22;5016446;28;20077;-68
2020/12/20 04:57:34;;;;;;;22.88;14.95;;;;;;;6.10;100.00;100766.06;5001455;28;20049;-68
2020/12/20 05:00:20;;;;;;;21.58;16.05;;;;;;;6.11;100.00;100767.75;5016865;28;20103;-68
2020/12/20 05:03:04;;;;;;;21.65;15.48;;;;;;;6.12;100.00;100764.16;5001349;28;20099;-68
2020/12/20 05:05:48;;;;;;;21.23;15.45;;;;;;;6.08;100.00;100762.66;5016243;28;20414;-69
2020/12/20 05:08:31;;;;;;;23.17;16.65;;;;;;;6.10;100.00;100765.19;5016300;28;20056;-68
2020/12/20 05:11:38;;;;;;;19.38;15.73;;;;;;;6.12;100.00;100773.88;4987558;28;20057;-69
2020/12/20 05:14:33;;;;;;;18.52;13.90;;;;;;;6.13;100.00;100775.56;5001394;28;20433;-68
2020/12/20 05:17:17;;;;;;;;;;;;;;;6.11;100.00;100782.75;5018231;28;20056;-68
2020/12/20 05:20:01;;;;;;;24.23;16.27;;;;;;;6.10;100.00;100781.06;5016285;28;19967;-68
2020/12/20 05:22:45;;;;;;;24.95;16.35;;;;;;;6.10;100.00;100787.22;5001367;28;20053;-68
2020/12/20 05:25:33;;;;;;;19.88;15.15;;;;;;;6.11;100.00;100780.97;5016147;28;20573;-68
2020/12/20 05:28:18;;;;;;;22.40;15.63;;;;;;;6.11;100.00;100778.34;5001291;28;20052;-68
2020/12/20 05:31:09;;;;;;;20.10;15.13;;;;;;;6.11;100.00;100788.94;5001181;28;20135;-68
2020/12/20 05:33:53;;;;;;;21.23;15.73;;;;;;;6.12;100.00;100790.63;5001186;28;20403;-68
2020/12/20 05:36:37;;;;;;;22.67;14.40;;;;;;;6.13;100.00;100781.72;5015810;28;20469;-68
2020/12/20 05:39:21;;;;;;;20.58;15.48;;;;;;;6.13;100.00;100789.66;5015903;28;20128;-68
2020/12/20 05:42:06;;;;;;;20.92;15.82;;;;;;;6.14;100.00;100803.75;5000711;28;20053;-68
2020/12/20 05:45:03;;;;;;;23.92;15.05;;;;;;;6.10;100.00;100803.13;5015563;28;20045;-68
2020/12/20 05:47:47;;;;;;;21.27;15.73;;;;;;;6.05;100.00;100804.38;5000619;28;20045;-68
2020/12/20 05:50:31;;;;;;;20.23;13.75;;;;;;;6.05;100.00;100794.63;5000632;28;20111;-68
2020/12/20 05:53:21;;;;;;;20.85;15.07;;;;;;;6.06;100.00;100801.59;5015721;28;20092;-68
2020/12/20 05:56:05;;;;;;;20.90;13.77;;;;;;;6.08;100.00;100797.09;4986904;28;20091;-68
2020/12/20 05:58:49;;;;;;;21.17;14.07;;;;;;;6.09;100.00;100811.16;5000748;28;20048;-68
2020/12/20 06:01:33;;;;;;;20.65;14.52;;;;;;;6.11;100.00;100803.94;5000859;28;20379;-68
2020/12/20 06:04:17;;;;;;;23.13;15.73;;;;;;;6.12;100.00;100806.50;5015470;28;20522;-68
2020/12/20 06:07:01;;;;;;;19.88;14.23;;;;;;;6.12;100.00;100811.78;5000494;28;20049;-65
2020/12/20 06:09:58;;;;;;;20.58;15.10;;;;;;;6.13;100.00;100812.63;5000504;28;20084;-68
2020/12/20 06:12:48;;;;;;;19.85;14.10;;;;;;;6.14;100.00;100820.47;4986365;28;20088;-67
2020/12/20 06:15:35;;;;;;;17.45;13.05;;;;;;;6.16;100.00;100817.72;5014897;28;20049;-68
2020/12/20 06:18:23;;;;;;;17.60;13.95;;;;;;;6.18;100.00;100821.13;5014763;28;20068;-68
2020/12/20 06:21:09;;;;;;;17.23;13.18;;;;;;;6.18;100.00;100816.66;5000157;28;20099;-68
2020/12/20 06:23:56;;;;;;;18.85;13.48;;;;;;;6.19;100.00;100818.38;4999879;28;20104;-68
2020/12/20 06:26:44;;;;;;;19.35;13.77;;;;;;;6.19;100.00;100828.09;4999903;28;20107;-67
2020/12/20 06:29:29;;;;;;;18.90;14.45;;;;;;;6.19;100.00;100826.31;5000256;28;20056;-68
2020/12/20 06:32:17;;;;;;;18.77;13.88;;;;;;;6.21;100.00;100815.59;5014614;28;20045;-68
2020/12/20 06:35:10;;;;;;;19.45;14.70;;;;;;;6.20;100.00;100814.78;5014560;28;20052;-68
2020/12/20 06:37:54;;;;;;;18.38;14.25;;;;;;;6.18;100.00;100821.94;5014563;28;20053;-68
2020/12/20 06:40:40;;;;;;;20.48;14.55;;;;;;;6.19;100.00;100815.72;4986035;28;20053;-68
2020/12/20 06:43:28;;;;;;;16.95;13.27;;;;;;;6.20;100.00;100816.56;4999456;28;20056;-65
2020/12/20 06:46:12;;;;;;;17.73;13.88;;;;;;;6.20;100.00;100813.91;4999937;28;20103;-68
2020/12/20 06:48:55;;;;;;;18.27;14.20;;;;;;;6.18;100.00;100816.66;4999786;28;20048;-68
2020/12/20 06:51:39;;;;;;;19.15;14.20;;;;;;;6.20;100.00;100817.44;5014619;28;20139;-65
2020/12/20 06:54:24;;;;;;;16.00;13.00;;;;;;;6.20;100.00;100817.44;4985949;28;20052;-68
2020/12/20 06:57:09;;;;;;;18.60;13.88;;;;;;;6.22;100.00;100822.59;5013849;28;20088;-68
2020/12/20 06:59:53;;;;;;;20.65;15.20;;;;;;;6.20;100.00;100825.38;5014470;28;20096;-68
2020/12/20 07:02:47;;;;;;;19.85;13.32;;;;;;;6.22;100.00;100826.09;4986002;28;20437;-68
2020/12/20 07:05:40;;;;;;;19.75;13.38;;;;;;;6.22;100.00;100827.88;5014091;28;20048;-68
2020/12/20 07:08:28;;;;;;;16.60;13.02;;;;;;;6.22;100.00;100836.69;4999272;28;20053;-68
2020/12/20 07:11:20;;;;;;;20.10;14.32;;;;;;;6.23;100.00;100846.34;5014041;28;20052;-68
2020/12/20 07:14:16;;;;;;;20.55;14.20;;;;;;;6.22;100.00;100855.22;5014313;28;20129;-67
2020/12/20 07:17:00;;;;;;;19.67;14.70;;;;;;;6.22;100.00;100849.94;4998964;28;20135;-68
2020/12/20 07:20:13;;;;;;;21.65;14.95;;;;;;;6.21;100.00;100850.88;4985288;28;20053;-68
2020/12/20 07:22:57;;;;;;;24.92;15.20;;;;;;;6.28;100.00;100853.97;5014002;28;20049;-67
2020/12/20 07:25:41;;;;;;;20.85;15.43;;;;;;;6.23;100.00;100862.22;5013718;28;20483;-68
2020/12/20 07:28:25;;;;;;;18.38;13.77;;;;;;;6.20;100.00;100851.84;4999109;28;20529;-68
2020/12/20 07:31:14;;;;;;;18.23;13.82;;;;;;;6.22;100.00;100854.38;4999085;28;20072;-68
2020/12/20 07:33:58;;;;;;;17.90;13.30;;;;;;;6.23;100.00;100846.34;4999059;28;20502;-68
2020/12/20 07:36:42;;;;;;;18.50;13.02;;;;;;;6.22;100.00;100855.22;4998692;28;20048;-67
2020/12/20 07:39:26;;;;;;;20.25;14.52;;;;;;;6.23;100.00;100856.06;4985007;28;20052;-67
2020/12/20 07:42:10;;;;;;;20.30;14.55;;;;;;;6.20;100.00;100859.78;5013791;28;20100;-68
2020/12/20 07:44:54;;;;;;;18.52;13.80;;;;;;;6.22;100.00;100851.72;4999152;28;20061;-67
2020/12/20 07:47:38;;;;;;;19.02;13.65;;;;;;;6.22;100.00;100852.59;5013403;28;20556;-67
2020/12/20 07:50:23;;;;;;;18.63;13.52;;;;;;;6.22;100.00;100849.06;5013475;28;20069;-67
2020/12/20 07:53:11;;;;;;;21.52;15.02;;;;;;;6.19;100.00;100855.44;4998840;28;20137;-68
2020/12/20 07:55:55;;;;;;;20.40;14.43;;;;;;;6.20;100.00;100850.97;4984900;28;20061;-67
2020/12/20 07:58:40;;;;;;;22.20;15.68;;;;;;;6.21;100.00;100857.97;4998746;28;20055;-68
2020/12/20 08:01:24;;;;;;;24.75;15.60;;;;;;;6.25;100.00;100849.72;5013357;28;20049;-66
2020/12/20 08:04:10;;;;;;;20.63;15.00;;;;;;;6.28;100.00;100857.44;5013508;28;20053;-68
2020/12/20 08:06:54;;;;;;;20.83;14.68;;;;;;;6.31;100.00;100870.50;4984815;28;20045;-68
2020/12/20 08:09:38;;;;;;;21.05;14.95;;;;;;;6.41;100.00;100874.22;5014195;28;20052;-67
2020/12/20 08:12:22;;;;;;;22.67;15.10;;;;;;;6.37;100.00;100864.78;5017546;28;20116;-68
2020/12/20 08:15:07;;;;;;;25.50;16.33;;;;;;;6.37;100.00;100859.47;5002603;28;20438;-68
2020/12/20 08:17:51;;;;;;;23.08;15.95;;;;;;;6.41;100.00;100860.13;5002281;28;20060;-68
2020/12/20 08:20:35;;;;;;;23.70;15.63;;;;;;;6.45;100.00;100861.63;5002370;28;20513;-67
2020/12/20 08:23:19;;;;;;;;;;;;;;;6.49;100.00;100863.97;5002573;28;20470;-65
2020/12/20 08:26:03;;;;;;;23.87;17.07;;;;;;;6.55;100.00;100866.19;5002301;28;20385;-68
2020/12/20 08:28:47;;;;;;;23.35;17.35;;;;;;;6.61;100.00;100863.13;5002204;28;20145;-68
2020/12/20 08:31:32;;;;;;;24.45;18.42;;;;;;;6.70;100.00;100865.16;5016979;28;20136;-67
2020/12/20 08:34:21;;;;;;;24.80;16.67;;;;;;;6.79;100.00;100877.75;5002328;28;20459;-68
2020/12/20 08:37:10;;;;;;;20.40;15.35;;;;;;;6.87;100.00;100874.59;5016754;28;20089;-67
2020/12/20 08:39:54;;;;;;;22.10;16.33;;;;;;;6.84;100.00;100872.97;5016976;28;20045;-68
2020/12/20 08:42:39;;;;;;;22.15;15.57;;;;;;;6.87;100.00;100867.47;5016775;28;20056;-68
2020/12/20 08:45:24;;;;;;;24.42;17.13;;;;;;;6.88;100.00;100858.56;5016901;28;20049;-68
2020/12/20 08:48:08;;;;;;;22.83;17.40;;;;;;;6.84;100.00;100854.44;5002113;28;20501;-68
2020/12/20 08:50:56;;;;;;;32.90;22.15;;;;;;;6.98;100.00;100859.59;5016609;28;20116;-68
2020/12/20 08:53:40;;;;;;;28.75;18.90;;;;;;;7.08;100.00;100867.78;5016906;28;20402;-68
2020/12/20 08:56:25;;;;;;;23.63;18.70;;;;;;;7.22;100.00;100881.75;5016486;28;20099;-67
2020/12/20 08:59:08;;;;;;;25.85;18.75;;;;;;;7.29;100.00;100893.63;5016524;28;20056;-67
2020/12/20 09:01:52;;;;;;;24.00;17.63;;;;;;;7.23;100.00;100899.38;5001832;28;20129;-67
2020/12/20 09:04:37;;;;;;;24.50;17.98;;;;;;;7.23;100.00;100899.38;5016439;28;20125;-67
2020/12/20 09:07:32;;;;;;;25.17;17.90;;;;;;;7.27;100.00;100900.00;5016570;28;20052;-66
2020/12/20 09:10:24;;;;;;;22.58;16.55;;;;;;;7.33;100.00;100903.06;5016267;28;20636;-67
2020/12/20 09:13:09;;;;;;;23.60;17.75;;;;;;;7.43;100.00;100890.84;5001477;28;20048;-67
2020/12/20 09:15:54;;;;;;;23.85;16.35;;;;;;;7.53;100.00;100883.94;5016321;28;20056;-67
2020/12/20 09:18:38;;;;;;;25.73;18.88;;;;;;;7.66;100.00;100876.78;5001562;28;20482;-68
2020/12/20 09:21:28;;;;;;;24.00;17.73;;;;;;;7.75;100.00;100879.59;5001111;28;20096;-67
2020/12/20 09:24:12;;;;;;;26.23;18.45;;;;;;;7.85;100.00;100879.78;5016266;28;20048;-67
2020/12/20 09:26:58;;;;;;;26.58;18.70;;;;;;;7.95;100.00;100884.28;5015975;28;20048;-67
2020/12/20 09:29:50;;;;;;;30.25;18.55;;;;;;;8.11;100.00;100892.81;5001308;28;20057;-67
2020/12/20 09:32:35;;;;;;;24.88;18.92;;;;;;;8.14;100.00;100884.63;5015840;28;20041;-67
2020/12/20 09:35:23;;;;;;;25.70;18.40;;;;;;;8.27;100.00;100885.44;5001028;28;20048;-67
2020/12/20 09:38:07;;;;;;;26.77;19.17;;;;;;;8.40;100.00;100896.84;5016281;28;20057;-67
2020/12/20 09:40:56;;;;;;;24.00;17.63;;;;;;;8.45;100.00;100905.31;5015730;28;20057;-67
2020/12/20 09:43:41;;;;;;;21.75;17.27;;;;;;;8.52;100.00;100908.34;5000954;28;20529;-67
2020/12/20 09:46:30;;;;;;;22.88;16.70;;;;;;;8.52;100.00;100913.66;4987200;28;20076;-66
2020/12/20 09:49:14;;;;;;;25.45;17.45;;;;;;;8.54;100.00;100919.72;5000737;28;20091;-65
2020/12/20 09:51:58;;;;;;;27.67;16.58;;;;;;;8.48;100.00;100921.03;5000952;28;20441;-66
2020/12/20 09:54:42;;;;;;;24.00;17.08;;;;;;;8.51;100.00;100920.81;5015919;28;20044;-67
2020/12/20 09:57:27;;;;;;;21.75;16.83;;;;;;;8.55;100.00;100921.41;5015353;28;20049;-67
2020/12/20 10:00:15;;;;;;;22.55;16.08;;;;;;;8.52;100.00;100926.94;5000846;28;20088;-67
2020/12/20 10:02:59;;;;;;;24.33;17.80;;;;;;;8.45;100.00;100925.72;5015995;28;20053;-67
2020/12/20 10:05:43;;;;;;;25.65;19.27;;;;;;;8.37;100.00;100925.44;5000680;28;20435;-66
2020/12/20 10:08:27;;;;;;;27.23;18.75;;;;;;;8.36;100.00;100931.72;5015192;28;20080;-65
2020/12/20 10:11:16;;;;;;;25.60;19.00;;;;;;;8.46;100.00;100917.63;5000410;28;20063;-67
2020/12/20 10:14:00;;;;;;;25.67;20.20;;;;;;;8.60;100.00;100913.94;5000592;28;20048;-66
2020/12/20 10:16:44;;;;;;;31.60;21.42;;;;;;;8.64;100.00;100910.09;4986218;28;20080;-67
2020/12/20 10:19:29;;;;;;;29.80;21.38;;;;;;;8.77;100.00;100916.16;5014969;28;20049;-66
2020/12/20 10:22:13;;;;;;;26.80;20.17;;;;;;;8.92;100.00;100912.31;5000275;28;20161;-67
2020/12/20 10:24:57;;;;;;;30.52;20.40;;;;;;;9.03;100.00;100912.34;5000210;28;20088;-67
2020/12/20 10:27:41;;;;;;;27.52;20.20;;;;;;;8.95;100.00;100910.28;4986494;28;20418;-67
2020/12/20 10:30:26;;;;;;;29.70;21.35;;;;;;;8.94;100.00;100916.56;4999937;28;20100;-67
2020/12/20 10:33:09;;;;;;;28.67;20.23;;;;;;;8.83;100.00;100916.53;4999228;28;20518;-67
2020/12/20 10:35:54;;;;;;;33.83;22.58;;;;;;;8.82;100.00;100916.66;5014796;28;20095;-67
2020/12/20 10:38:38;;;;;;;29.40;21.95;;;;;;;8.87;100.00;100919.81;5014922;28;20060;-67
2020/12/20 10:41:22;;;;;;;30.48;22.00;;;;;;;8.80;100.00;100916.78;5014588;28;20137;-67
2020/12/20 10:44:07;;;;;;;32.63;21.73;;;;;;;8.86;100.00;100924.28;4999597;28;20414;-67
2020/12/20 10:46:52;;;;;;;32.28;23.13;;;;;;;8.89;100.00;100915.22;5014732;28;20060;-67
2020/12/20 10:49:37;;;;;;;31.70;22.98;;;;;;;8.98;100.00;100909.19;4999783;28;20056;-67
2020/12/20 10:52:20;;;;;;;28.98;21.88;;;;;;;9.15;100.00;100908.75;4986352;28;20053;-67
2020/12/20 10:55:05;;;;;;;28.70;21.27;;;;;;;9.24;100.00;100900.88;4999795;28;20100;-67
2020/12/20 10:57:50;;;;;;;30.50;20.77;;;;;;;9.33;100.00;100909.94;5000139;28;20044;-67
2020/12/20 11:00:35;;;;;;;25.35;19.85;;;;;;;9.54;100.00;100898.44;5014526;28;20112;-67
2020/12/20 11:03:18;;;;;;;27.00;19.95;;;;;;;9.68;100.00;100900.84;4985773;28;20092;-67
2020/12/20 11:06:02;;;;;;;24.10;18.95;;;;;;;9.88;100.00;100896.59;4999543;28;20045;-67
2020/12/20 11:08:47;;;;;;;24.13;19.17;;;;;;;9.78;100.00;100895.63;5014233;28;20051;-67
2020/12/20 11:11:32;;;;;;;28.25;19.80;;;;;;;9.83;100.00;100888.09;5014091;28;20064;-67
2020/12/20 11:14:16;;;;;;;26.75;19.00;;;;;;;9.85;100.00;100891.47;5014541;28;20509;-66
2020/12/20 11:17:01;;;;;;;23.33;18.10;;;;;;;9.80;100.00;100889.19;4999906;28;20096;-66
2020/12/20 11:19:54;;;;;;;27.50;20.05;;;;;;;9.87;100.00;100889.56;5000387;28;20514;-67
2020/12/20 11:22:39;;;;;;;30.05;20.77;;;;;;;9.90;100.00;100894.63;5014105;28;20041;-67
2020/12/20 11:25:22;;;;;;;26.70;19.70;;;;;;;9.92;100.00;100885.56;5013976;28;20100;-67
2020/12/20 11:28:07;;;;;;;27.02;19.38;;;;;;;9.86;100.00;100890.50;5014040;28;20125;-67
2020/12/20 11:30:51;;;;;;;27.15;20.65;;;;;;;9.81;100.00;100884.72;4998947;28;20129;-67
2020/12/20 11:33:35;;;;;;;31.13;21.88;;;;;;;9.80;100.00;100883.03;4999052;28;20129;-67
2020/12/20 11:36:21;;;;;;;33.22;20.63;;;;;;;9.79;100.00;100881.34;4971439;28;20157;-67
2020/12/20 11:39:08;;;;;;;25.55;18.25;;;;;;;9.75;100.00;100885.22;4999076;28;20187;-67
2020/12/20 11:41:52;;;;;;;24.65;18.20;;;;;;;9.68;100.00;100884.03;4999065;28;20171;-67
2020/12/20 11:44:36;;;;;;;23.88;17.92;;;;;;;9.62;100.00;100881.84;5013576;28;20415;-67
2020/12/20 11:47:20;;;;;;;35.70;20.27;;;;;;;9.59;100.00;100876.78;4985047;28;20052;-67
2020/12/20 11:50:03;;;;;;;;;;;;;;;9.53;100.00;100875.47;4999260;28;20513;-66
2020/12/20 11:52:48;;;;;;;26.60;19.00;;;;;;;9.53;100.00;100878.13;4999068;28;19997;-67
2020/12/20 11:55:32;;;;;;;28.58;19.73;;;;;;;9.54;100.00;100879.81;5013746;28;20052;-66
2020/12/20 11:58:16;;;;;;;26.58;20.05;;;;;;;9.52;100.00;100879.09;4998711;28;20049;-67
2020/12/20 12:01:01;;;;;;;28.40;19.65;;;;;;;9.53;100.00;100877.25;5013855;28;20176;-67
2020/12/20 12:03:44;;;;;;;;;;;;;;;9.55;100.00;100878.84;4985116;28;20049;-67
2020/12/20 12:06:28;;;;;;;30.50;20.60;;;;;;;9.57;100.00;100873.41;4998741;28;19924;-67
2020/12/20 12:09:13;;;;;;;29.20;20.48;;;;;;;9.61;100.00;100867.72;4998776;28;20502;-66
2020/12/20 12:11:57;;;;;;;31.85;20.75;;;;;;;9.63;100.00;100870.22;4985141;28;20514;-67
2020/12/20 12:14:41;;;;;;;30.65;20.75;;;;;;;9.59;100.00;100868.81;5013433;28;20502;-66
2020/12/20 12:17:25;;;;;;;29.40;20.30;;;;;;;9.63;100.00;100872.91;5013247;28;20080;-66
2020/12/20 12:20:10;;;;;;;28.92;19.73;;;;;;;9.48;100.00;100868.81;5013370;28;20104;-66
2020/12/20 12:22:54;;;;;;;30.42;19.13;;;;;;;9.42;100.00;100877.28;4998579;28;20415;-67
2020/12/20 12:25:38;;;;;;;28.60;19.05;;;;;;;9.37;100.00;100884.78;5013281;28;20504;-67
2020/12/20 12:28:22;;;;;;;27.13;19.40;;;;;;;9.30;100.00;100880.91;4998666;28;20100;-67
2020/12/20 12:31:06;;;;;;;31.02;19.88;;;;;;;9.29;100.00;100887.22;4998660;28;20052;-67
2020/12/20 12:33:51;;;;;;;31.23;20.00;;;;;;;9.23;100.00;100891.19;5013361;28;20125;-67